sensor_id;sensor_type;location;lat;lon;timestamp;temperature;humidity
41965;DHT22;50120;53.250;8.702;2022-08-03T00:01:43;19.50;99.90
41965;DHT22;50120;53.250;8.702;2022-08-03T00:04:09;19.50;99.90
41965;DHT22;50120;53.250;8.702;2022-08-03T00:06:36;19.40;99.90
41965;DHT22;50120;53.250;8.702;2022-08-03T00:09:03;19.40;99.90
41965;DHT22;50120;53.250;8.702;2022-08-03T00:11:29;19.40;99.90
41965;DHT22;50120;53.250;8.702;2022-08-03T00:13:55;19.40;99.90
41965;DHT22;50120;53.250;8.702;2022-08-03T00:16:21;19.40;99.90
41965;DHT22;50120;53.250;8.702;2022-08-03T00:18:46;19.40;99.90
41965;DHT22;50120;53.250;8.702;2022-08-03T00:21:12;19.40;99.90
41965;DHT22;50120;53.250;8.702;2022-08-03T00:23:38;19.30;99.90
41965;DHT22;50120;53.250;8.702;2022-08-03T00:26:03;19.30;99.90
41965;DHT22;50120;53.250;8.702;2022-08-03T00:28:29;19.30;99.90
41965;DHT22;50120;53.250;8.702;2022-08-03T00:30:55;19.30;99.90
41965;DHT22;50120;53.250;8.702;2022-08-03T00:33:21;19.20;99.90
41965;DHT22;50120;53.250;8.702;2022-08-03T00:35:47;19.20;99.90
41965;DHT22;50120;53.250;8.702;2022-08-03T00:38:13;19.20;99.90
41965;DHT22;50120;53.250;8.702;2022-08-03T00:40:41;19.20;99.90
41965;DHT22;50120;53.250;8.702;2022-08-03T00:43:07;19.20;99.90
41965;DHT22;50120;53.250;8.702;2022-08-03T00:45:39;19.10;99.90
41965;DHT22;50120;53.250;8.702;2022-08-03T00:48:07;19.10;99.90
41965;DHT22;50120;53.250;8.702;2022-08-03T00:50:34;19.10;99.90
41965;DHT22;50120;53.250;8.702;2022-08-03T00:53:05;19.00;99.90
41965;DHT22;50120;53.250;8.702;2022-08-03T00:55:32;19.00;99.90
41965;DHT22;50120;53.250;8.702;2022-08-03T00:57:58;19.00;99.90
41965;DHT22;50120;53.250;8.702;2022-08-03T01:00:26;18.90;99.90
41965;DHT22;50120;53.250;8.702;2022-08-03T01:02:55;18.90;99.90
41965;DHT22;50120;53.250;8.702;2022-08-03T01:05:24;18.90;99.90
41965;DHT22;50120;53.250;8.702;2022-08-03T01:08:03;18.80;99.90
41965;DHT22;50120;53.250;8.702;2022-08-03T01:16:27;18.70;99.90
41965;DHT22;50120;53.250;8.702;2022-08-03T01:22:14;18.60;99.90
41965;DHT22;50120;53.250;8.702;2022-08-03T01:24:29;18.60;99.90
41965;DHT22;50120;53.250;8.702;2022-08-03T01:27:09;18.50;99.90
41965;DHT22;50120;53.250;8.702;2022-08-03T01:29:56;18.60;99.90
41965;DHT22;50120;53.250;8.702;2022-08-03T01:35:14;18.50;99.90
41965;DHT22;50120;53.250;8.702;2022-08-03T01:37:56;18.50;99.90
41965;DHT22;50120;53.250;8.702;2022-08-03T01:40:26;18.40;99.90
41965;DHT22;50120;53.250;8.702;2022-08-03T01:42:58;18.40;99.90
41965;DHT22;50120;53.250;8.702;2022-08-03T01:45:30;18.40;99.90
41965;DHT22;50120;53.250;8.702;2022-08-03T01:47:57;18.30;99.90
41965;DHT22;50120;53.250;8.702;2022-08-03T01:50:26;18.30;99.90
41965;DHT22;50120;53.250;8.702;2022-08-03T01:52:54;18.30;99.90
41965;DHT22;50120;53.250;8.702;2022-08-03T01:55:21;18.30;99.90
41965;DHT22;50120;53.250;8.702;2022-08-03T01:57:48;18.30;99.90
41965;DHT22;50120;53.250;8.702;2022-08-03T02:00:21;18.30;99.90
41965;DHT22;50120;53.250;8.702;2022-08-03T02:02:48;18.20;99.90
41965;DHT22;50120;53.250;8.702;2022-08-03T02:05:15;18.10;99.90
41965;DHT22;50120;53.250;8.702;2022-08-03T02:07:44;18.20;99.90
41965;DHT22;50120;53.250;8.702;2022-08-03T02:10:13;18.10;99.90
41965;DHT22;50120;53.250;8.702;2022-08-03T02:12:43;18.10;99.90
41965;DHT22;50120;53.250;8.702;2022-08-03T02:15:11;18.10;99.90
41965;DHT22;50120;53.250;8.702;2022-08-03T02:17:37;18.10;99.90
41965;DHT22;50120;53.250;8.702;2022-08-03T02:20:05;18.10;99.90
41965;DHT22;50120;53.250;8.702;2022-08-03T02:22:32;18.00;99.90
41965;DHT22;50120;53.250;8.702;2022-08-03T02:24:59;18.00;99.90
41965;DHT22;50120;53.250;8.702;2022-08-03T02:27:27;17.90;99.90
41965;DHT22;50120;53.250;8.702;2022-08-03T02:30:04;18.00;99.90
41965;DHT22;50120;53.250;8.702;2022-08-03T02:32:33;18.00;99.90
41965;DHT22;50120;53.250;8.702;2022-08-03T02:35:02;18.00;99.90
41965;DHT22;50120;53.250;8.702;2022-08-03T02:37:31;17.90;99.90
41965;DHT22;50120;53.250;8.702;2022-08-03T02:40:01;17.90;99.90
41965;DHT22;50120;53.250;8.702;2022-08-03T02:42:28;17.90;99.90
41965;DHT22;50120;53.250;8.702;2022-08-03T02:44:58;17.90;99.90
41965;DHT22;50120;53.250;8.702;2022-08-03T02:47:27;17.80;99.90
41965;DHT22;50120;53.250;8.702;2022-08-03T02:49:56;17.90;99.90
41965;DHT22;50120;53.250;8.702;2022-08-03T02:52:27;17.80;99.90
41965;DHT22;50120;53.250;8.702;2022-08-03T02:54:58;17.80;99.90
41965;DHT22;50120;53.250;8.702;2022-08-03T02:57:26;17.80;99.90
41965;DHT22;50120;53.250;8.702;2022-08-03T02:59:54;17.70;99.90
41965;DHT22;50120;53.250;8.702;2022-08-03T03:02:20;17.70;99.90
41965;DHT22;50120;53.250;8.702;2022-08-03T03:04:49;17.70;99.90
41965;DHT22;50120;53.250;8.702;2022-08-03T03:07:16;17.70;99.90
41965;DHT22;50120;53.250;8.702;2022-08-03T03:09:42;17.60;99.90
41965;DHT22;50120;53.250;8.702;2022-08-03T03:12:09;17.60;99.90
41965;DHT22;50120;53.250;8.702;2022-08-03T03:14:37;17.60;99.90
41965;DHT22;50120;53.250;8.702;2022-08-03T03:17:05;17.60;99.90
41965;DHT22;50120;53.250;8.702;2022-08-03T03:19:33;17.50;99.90
41965;DHT22;50120;53.250;8.702;2022-08-03T03:22:00;17.50;99.90
41965;DHT22;50120;53.250;8.702;2022-08-03T03:24:28;17.50;99.90
41965;DHT22;50120;53.250;8.702;2022-08-03T03:26:54;17.40;99.90
41965;DHT22;50120;53.250;8.702;2022-08-03T03:29:21;17.40;99.90
41965;DHT22;50120;53.250;8.702;2022-08-03T03:31:47;17.40;99.90
41965;DHT22;50120;53.250;8.702;2022-08-03T03:34:13;17.40;99.90
41965;DHT22;50120;53.250;8.702;2022-08-03T03:36:39;17.30;99.90
41965;DHT22;50120;53.250;8.702;2022-08-03T03:39:05;17.30;99.90
41965;DHT22;50120;53.250;8.702;2022-08-03T03:41:32;17.30;99.90
41965;DHT22;50120;53.250;8.702;2022-08-03T03:43:58;17.30;99.90
41965;DHT22;50120;53.250;8.702;2022-08-03T03:46:24;17.30;99.90
41965;DHT22;50120;53.250;8.702;2022-08-03T03:48:50;17.30;99.90
41965;DHT22;50120;53.250;8.702;2022-08-03T03:51:16;17.20;99.90
41965;DHT22;50120;53.250;8.702;2022-08-03T03:53:55;17.20;99.90
41965;DHT22;50120;53.250;8.702;2022-08-03T03:56:21;17.20;99.90
41965;DHT22;50120;53.250;8.702;2022-08-03T03:58:47;17.20;99.90
41965;DHT22;50120;53.250;8.702;2022-08-03T04:01:13;17.20;99.90
41965;DHT22;50120;53.250;8.702;2022-08-03T04:03:39;17.20;99.90
41965;DHT22;50120;53.250;8.702;2022-08-03T04:06:05;17.20;99.90
41965;DHT22;50120;53.250;8.702;2022-08-03T04:08:49;17.10;99.90
41965;DHT22;50120;53.250;8.702;2022-08-03T04:11:38;17.10;99.90
41965;DHT22;50120;53.250;8.702;2022-08-03T04:14:23;17.10;99.90
41965;DHT22;50120;53.250;8.702;2022-08-03T04:17:00;17.10;99.90
41965;DHT22;50120;53.250;8.702;2022-08-03T04:19:27;17.10;99.90
41965;DHT22;50120;53.250;8.702;2022-08-03T04:21:58;17.10;99.90
41965;DHT22;50120;53.250;8.702;2022-08-03T04:24:29;17.10;99.90
41965;DHT22;50120;53.250;8.702;2022-08-03T04:26:58;17.10;99.90
41965;DHT22;50120;53.250;8.702;2022-08-03T04:29:25;17.10;99.90
41965;DHT22;50120;53.250;8.702;2022-08-03T04:31:53;17.20;99.90
41965;DHT22;50120;53.250;8.702;2022-08-03T04:34:20;17.20;99.90
41965;DHT22;50120;53.250;8.702;2022-08-03T04:36:52;17.20;99.90
41965;DHT22;50120;53.250;8.702;2022-08-03T04:39:24;17.30;99.90
41965;DHT22;50120;53.250;8.702;2022-08-03T04:41:57;17.30;99.90
41965;DHT22;50120;53.250;8.702;2022-08-03T04:44:23;17.30;99.90
41965;DHT22;50120;53.250;8.702;2022-08-03T04:46:50;17.40;99.90
41965;DHT22;50120;53.250;8.702;2022-08-03T04:49:18;17.40;99.90
41965;DHT22;50120;53.250;8.702;2022-08-03T04:51:45;17.50;99.90
41965;DHT22;50120;53.250;8.702;2022-08-03T04:54:12;17.50;99.90
41965;DHT22;50120;53.250;8.702;2022-08-03T04:56:42;17.50;99.90
41965;DHT22;50120;53.250;8.702;2022-08-03T04:59:09;17.50;99.90
41965;DHT22;50120;53.250;8.702;2022-08-03T05:01:35;17.60;99.90
41965;DHT22;50120;53.250;8.702;2022-08-03T05:04:01;17.60;99.90
41965;DHT22;50120;53.250;8.702;2022-08-03T05:06:29;17.60;99.90
41965;DHT22;50120;53.250;8.702;2022-08-03T05:08:55;17.70;99.90
41965;DHT22;50120;53.250;8.702;2022-08-03T05:11:21;17.70;99.90
41965;DHT22;50120;53.250;8.702;2022-08-03T05:13:47;17.80;99.90
41965;DHT22;50120;53.250;8.702;2022-08-03T05:16:13;17.80;99.90
41965;DHT22;50120;53.250;8.702;2022-08-03T05:18:40;17.90;99.90
41965;DHT22;50120;53.250;8.702;2022-08-03T05:21:07;18.00;99.90
41965;DHT22;50120;53.250;8.702;2022-08-03T05:23:33;18.10;99.90
41965;DHT22;50120;53.250;8.702;2022-08-03T05:26:00;18.20;99.90
41965;DHT22;50120;53.250;8.702;2022-08-03T05:28:25;18.30;99.90
41965;DHT22;50120;53.250;8.702;2022-08-03T05:30:51;18.50;99.90
41965;DHT22;50120;53.250;8.702;2022-08-03T05:33:17;18.50;99.90
41965;DHT22;50120;53.250;8.702;2022-08-03T05:35:42;18.60;99.90
41965;DHT22;50120;53.250;8.702;2022-08-03T05:38:08;18.70;99.90
41965;DHT22;50120;53.250;8.702;2022-08-03T05:40:34;18.80;99.90
41965;DHT22;50120;53.250;8.702;2022-08-03T05:43:00;18.90;99.90
41965;DHT22;50120;53.250;8.702;2022-08-03T05:45:26;19.00;99.90
41965;DHT22;50120;53.250;8.702;2022-08-03T05:47:52;19.00;99.90
41965;DHT22;50120;53.250;8.702;2022-08-03T05:50:19;19.10;99.90
41965;DHT22;50120;53.250;8.702;2022-08-03T05:52:45;19.20;99.90
41965;DHT22;50120;53.250;8.702;2022-08-03T05:55:11;19.20;99.90
41965;DHT22;50120;53.250;8.702;2022-08-03T05:57:39;19.30;99.90
41965;DHT22;50120;53.250;8.702;2022-08-03T06:00:09;19.40;99.90
41965;DHT22;50120;53.250;8.702;2022-08-03T06:02:36;19.50;99.90
41965;DHT22;50120;53.250;8.702;2022-08-03T06:05:02;19.60;99.90
41965;DHT22;50120;53.250;8.702;2022-08-03T06:07:28;19.70;99.90
41965;DHT22;50120;53.250;8.702;2022-08-03T06:09:54;19.80;99.90
41965;DHT22;50120;53.250;8.702;2022-08-03T06:12:19;20.00;99.90
41965;DHT22;50120;53.250;8.702;2022-08-03T06:14:45;20.10;99.90
41965;DHT22;50120;53.250;8.702;2022-08-03T06:17:11;20.30;99.90
41965;DHT22;50120;53.250;8.702;2022-08-03T06:19:37;20.40;99.90
41965;DHT22;50120;53.250;8.702;2022-08-03T06:22:03;20.50;99.90
41965;DHT22;50120;53.250;8.702;2022-08-03T06:24:29;20.70;99.90
41965;DHT22;50120;53.250;8.702;2022-08-03T06:26:54;20.80;99.90
41965;DHT22;50120;53.250;8.702;2022-08-03T06:29:21;20.80;99.90
41965;DHT22;50120;53.250;8.702;2022-08-03T06:31:46;20.90;99.90
41965;DHT22;50120;53.250;8.702;2022-08-03T06:34:12;21.00;99.90
41965;DHT22;50120;53.250;8.702;2022-08-03T06:36:38;21.10;99.90
41965;DHT22;50120;53.250;8.702;2022-08-03T06:39:04;21.20;99.90
41965;DHT22;50120;53.250;8.702;2022-08-03T06:41:30;21.30;99.90
41965;DHT22;50120;53.250;8.702;2022-08-03T06:43:55;21.40;99.90
41965;DHT22;50120;53.250;8.702;2022-08-03T06:46:21;21.50;99.90
41965;DHT22;50120;53.250;8.702;2022-08-03T06:48:47;21.50;99.90
41965;DHT22;50120;53.250;8.702;2022-08-03T06:51:13;21.60;99.90
41965;DHT22;50120;53.250;8.702;2022-08-03T06:53:39;21.60;99.90
41965;DHT22;50120;53.250;8.702;2022-08-03T06:56:05;21.70;99.90
41965;DHT22;50120;53.250;8.702;2022-08-03T06:58:31;21.80;99.90
41965;DHT22;50120;53.250;8.702;2022-08-03T07:00:57;21.90;99.90
41965;DHT22;50120;53.250;8.702;2022-08-03T07:03:23;21.90;99.90
41965;DHT22;50120;53.250;8.702;2022-08-03T07:05:49;22.00;99.90
41965;DHT22;50120;53.250;8.702;2022-08-03T07:08:15;22.10;99.90
41965;DHT22;50120;53.250;8.702;2022-08-03T07:10:42;22.10;99.90
41965;DHT22;50120;53.250;8.702;2022-08-03T07:13:08;22.20;99.90
41965;DHT22;50120;53.250;8.702;2022-08-03T07:15:34;22.20;99.90
41965;DHT22;50120;53.250;8.702;2022-08-03T07:17:59;22.30;99.90
41965;DHT22;50120;53.250;8.702;2022-08-03T07:20:25;22.40;99.90
41965;DHT22;50120;53.250;8.702;2022-08-03T07:22:51;22.50;99.90
41965;DHT22;50120;53.250;8.702;2022-08-03T07:25:17;22.50;99.90
41965;DHT22;50120;53.250;8.702;2022-08-03T07:27:44;22.60;99.90
41965;DHT22;50120;53.250;8.702;2022-08-03T07:30:10;22.60;99.90
41965;DHT22;50120;53.250;8.702;2022-08-03T07:32:36;22.60;99.90
41965;DHT22;50120;53.250;8.702;2022-08-03T07:35:03;22.60;99.90
41965;DHT22;50120;53.250;8.702;2022-08-03T07:37:29;22.60;99.90
41965;DHT22;50120;53.250;8.702;2022-08-03T07:39:56;22.60;99.90
41965;DHT22;50120;53.250;8.702;2022-08-03T07:42:26;22.70;99.90
41965;DHT22;50120;53.250;8.702;2022-08-03T07:44:52;22.70;99.90
41965;DHT22;50120;53.250;8.702;2022-08-03T07:47:19;22.80;99.90
41965;DHT22;50120;53.250;8.702;2022-08-03T07:49:46;22.90;99.90
41965;DHT22;50120;53.250;8.702;2022-08-03T07:52:12;22.90;99.90
41965;DHT22;50120;53.250;8.702;2022-08-03T07:54:56;23.00;99.90
41965;DHT22;50120;53.250;8.702;2022-08-03T07:57:22;23.10;99.90
41965;DHT22;50120;53.250;8.702;2022-08-03T07:59:48;23.20;99.90
41965;DHT22;50120;53.250;8.702;2022-08-03T08:02:14;23.30;99.90
41965;DHT22;50120;53.250;8.702;2022-08-03T08:04:40;23.40;99.90
41965;DHT22;50120;53.250;8.702;2022-08-03T08:07:06;23.50;99.90
41965;DHT22;50120;53.250;8.702;2022-08-03T08:09:32;23.60;99.90
41965;DHT22;50120;53.250;8.702;2022-08-03T08:11:58;23.80;99.90
41965;DHT22;50120;53.250;8.702;2022-08-03T08:14:24;23.90;99.90
41965;DHT22;50120;53.250;8.702;2022-08-03T08:16:50;24.00;99.90
41965;DHT22;50120;53.250;8.702;2022-08-03T08:19:16;24.10;99.90
41965;DHT22;50120;53.250;8.702;2022-08-03T08:21:45;24.20;99.90
41965;DHT22;50120;53.250;8.702;2022-08-03T08:24:11;24.30;99.90
41965;DHT22;50120;53.250;8.702;2022-08-03T08:26:36;24.40;99.90
41965;DHT22;50120;53.250;8.702;2022-08-03T08:29:03;24.60;99.90
41965;DHT22;50120;53.250;8.702;2022-08-03T08:31:29;24.70;99.90
41965;DHT22;50120;53.250;8.702;2022-08-03T08:33:55;24.70;99.90
41965;DHT22;50120;53.250;8.702;2022-08-03T08:36:20;24.80;99.90
41965;DHT22;50120;53.250;8.702;2022-08-03T08:38:46;24.90;99.90
41965;DHT22;50120;53.250;8.702;2022-08-03T08:41:14;25.00;99.90
41965;DHT22;50120;53.250;8.702;2022-08-03T08:43:40;25.00;99.90
41965;DHT22;50120;53.250;8.702;2022-08-03T08:46:10;25.00;99.90
41965;DHT22;50120;53.250;8.702;2022-08-03T08:48:40;25.00;99.90
41965;DHT22;50120;53.250;8.702;2022-08-03T08:51:07;25.20;99.90
41965;DHT22;50120;53.250;8.702;2022-08-03T08:53:36;25.30;99.90
41965;DHT22;50120;53.250;8.702;2022-08-03T08:56:02;25.40;99.90
41965;DHT22;50120;53.250;8.702;2022-08-03T08:58:33;25.40;99.90
41965;DHT22;50120;53.250;8.702;2022-08-03T09:00:59;25.50;99.90
41965;DHT22;50120;53.250;8.702;2022-08-03T09:03:25;25.40;99.90
41965;DHT22;50120;53.250;8.702;2022-08-03T09:05:51;25.40;99.90
41965;DHT22;50120;53.250;8.702;2022-08-03T09:08:17;25.50;99.90
41965;DHT22;50120;53.250;8.702;2022-08-03T09:10:43;25.50;99.90
41965;DHT22;50120;53.250;8.702;2022-08-03T09:13:08;25.50;99.90
41965;DHT22;50120;53.250;8.702;2022-08-03T09:15:34;25.60;99.90
41965;DHT22;50120;53.250;8.702;2022-08-03T09:18:03;25.70;99.90
41965;DHT22;50120;53.250;8.702;2022-08-03T09:20:32;25.80;99.90
41965;DHT22;50120;53.250;8.702;2022-08-03T09:22:59;25.90;99.90
41965;DHT22;50120;53.250;8.702;2022-08-03T09:25:35;25.90;99.90
41965;DHT22;50120;53.250;8.702;2022-08-03T09:28:12;26.00;99.90
41965;DHT22;50120;53.250;8.702;2022-08-03T09:30:57;26.10;99.90
41965;DHT22;50120;53.250;8.702;2022-08-03T09:33:23;26.20;99.90
41965;DHT22;50120;53.250;8.702;2022-08-03T09:35:49;26.20;99.90
41965;DHT22;50120;53.250;8.702;2022-08-03T09:38:23;26.30;99.90
41965;DHT22;50120;53.250;8.702;2022-08-03T09:40:54;26.50;99.90
41965;DHT22;50120;53.250;8.702;2022-08-03T09:43:20;26.60;99.90
41965;DHT22;50120;53.250;8.702;2022-08-03T09:45:46;26.70;99.90
41965;DHT22;50120;53.250;8.702;2022-08-03T09:48:29;26.80;99.90
41965;DHT22;50120;53.250;8.702;2022-08-03T09:50:58;26.80;99.90
41965;DHT22;50120;53.250;8.702;2022-08-03T09:53:25;26.90;99.90
41965;DHT22;50120;53.250;8.702;2022-08-03T09:55:53;26.90;99.90
41965;DHT22;50120;53.250;8.702;2022-08-03T09:58:23;26.90;99.90
41965;DHT22;50120;53.250;8.702;2022-08-03T10:00:53;26.90;99.90
41965;DHT22;50120;53.250;8.702;2022-08-03T10:03:19;27.00;99.90
41965;DHT22;50120;53.250;8.702;2022-08-03T10:05:45;27.10;99.90
41965;DHT22;50120;53.250;8.702;2022-08-03T10:08:16;27.10;99.90
41965;DHT22;50120;53.250;8.702;2022-08-03T10:10:44;27.20;99.90
41965;DHT22;50120;53.250;8.702;2022-08-03T10:13:14;27.40;99.90
41965;DHT22;50120;53.250;8.702;2022-08-03T10:15:40;27.40;99.90
41965;DHT22;50120;53.250;8.702;2022-08-03T10:18:06;27.40;99.70
41965;DHT22;50120;53.250;8.702;2022-08-03T10:20:37;27.40;99.90
41965;DHT22;50120;53.250;8.702;2022-08-03T10:23:07;27.40;99.90
41965;DHT22;50120;53.250;8.702;2022-08-03T10:25:35;27.40;99.90
41965;DHT22;50120;53.250;8.702;2022-08-03T10:28:03;27.50;99.90
41965;DHT22;50120;53.250;8.702;2022-08-03T10:30:31;27.60;99.70
41965;DHT22;50120;53.250;8.702;2022-08-03T10:33:08;27.80;99.00
41965;DHT22;50120;53.250;8.702;2022-08-03T10:35:39;27.80;99.40
41965;DHT22;50120;53.250;8.702;2022-08-03T10:38:13;27.90;99.30
41965;DHT22;50120;53.250;8.702;2022-08-03T10:40:41;28.00;99.20
41965;DHT22;50120;53.250;8.702;2022-08-03T10:43:32;28.10;98.40
41965;DHT22;50120;53.250;8.702;2022-08-03T10:45:59;28.10;99.30
41965;DHT22;50120;53.250;8.702;2022-08-03T10:48:26;28.20;98.50
41965;DHT22;50120;53.250;8.702;2022-08-03T10:50:52;28.20;98.80
41965;DHT22;50120;53.250;8.702;2022-08-03T10:53:37;28.20;98.70
41965;DHT22;50120;53.250;8.702;2022-08-03T10:56:04;28.20;97.80
41965;DHT22;50120;53.250;8.702;2022-08-03T10:58:49;28.20;97.60
41965;DHT22;50120;53.250;8.702;2022-08-03T11:01:16;28.20;97.90
41965;DHT22;50120;53.250;8.702;2022-08-03T11:06:25;28.30;98.30
41965;DHT22;50120;53.250;8.702;2022-08-03T11:11:36;28.50;97.90
41965;DHT22;50120;53.250;8.702;2022-08-03T11:14:07;28.50;97.30
41965;DHT22;50120;53.250;8.702;2022-08-03T11:16:36;28.60;96.60
41965;DHT22;50120;53.250;8.702;2022-08-03T11:19:07;28.70;96.80
41965;DHT22;50120;53.250;8.702;2022-08-03T11:40:44;29.30;95.40
41965;DHT22;50120;53.250;8.702;2022-08-03T11:46:09;29.40;93.30
41965;DHT22;50120;53.250;8.702;2022-08-03T11:48:49;29.40;92.70
41965;DHT22;50120;53.250;8.702;2022-08-03T11:51:26;29.40;93.50
41965;DHT22;50120;53.250;8.702;2022-08-03T11:53:57;29.50;93.10
41965;DHT22;50120;53.250;8.702;2022-08-03T11:56:23;29.50;92.60
41965;DHT22;50120;53.250;8.702;2022-08-03T11:58:50;29.50;92.20
41965;DHT22;50120;53.250;8.702;2022-08-03T12:01:18;29.40;91.30
41965;DHT22;50120;53.250;8.702;2022-08-03T12:03:44;29.40;91.40
41965;DHT22;50120;53.250;8.702;2022-08-03T12:06:13;29.40;92.20
41965;DHT22;50120;53.250;8.702;2022-08-03T12:08:40;29.40;92.30
41965;DHT22;50120;53.250;8.702;2022-08-03T12:11:09;29.50;92.20
41965;DHT22;50120;53.250;8.702;2022-08-03T12:13:41;29.50;92.40
41965;DHT22;50120;53.250;8.702;2022-08-03T12:16:07;29.50;91.00
41965;DHT22;50120;53.250;8.702;2022-08-03T12:18:33;29.70;91.50
41965;DHT22;50120;53.250;8.702;2022-08-03T12:21:05;29.70;91.40
41965;DHT22;50120;53.250;8.702;2022-08-03T12:23:31;29.80;91.50
41965;DHT22;50120;53.250;8.702;2022-08-03T12:26:03;29.80;89.90
41965;DHT22;50120;53.250;8.702;2022-08-03T12:28:28;29.90;90.40
41965;DHT22;50120;53.250;8.702;2022-08-03T12:30:54;29.90;90.50
41965;DHT22;50120;53.250;8.702;2022-08-03T12:33:25;30.00;91.10
41965;DHT22;50120;53.250;8.702;2022-08-03T12:36:06;30.00;90.60
41965;DHT22;50120;53.250;8.702;2022-08-03T12:38:37;30.20;91.90
41965;DHT22;50120;53.250;8.702;2022-08-03T12:41:05;30.20;90.20
41965;DHT22;50120;53.250;8.702;2022-08-03T12:43:33;30.30;88.60
41965;DHT22;50120;53.250;8.702;2022-08-03T12:46:13;30.40;90.00
41965;DHT22;50120;53.250;8.702;2022-08-03T12:49:00;30.40;90.00
41965;DHT22;50120;53.250;8.702;2022-08-03T12:51:27;30.30;89.30
41965;DHT22;50120;53.250;8.702;2022-08-03T12:53:54;30.40;88.10
41965;DHT22;50120;53.250;8.702;2022-08-03T12:56:20;30.40;88.00
41965;DHT22;50120;53.250;8.702;2022-08-03T12:58:46;30.50;88.20
41965;DHT22;50120;53.250;8.702;2022-08-03T13:01:15;30.50;88.70
41965;DHT22;50120;53.250;8.702;2022-08-03T13:03:46;30.50;87.40
41965;DHT22;50120;53.250;8.702;2022-08-03T13:06:14;30.40;84.00
41965;DHT22;50120;53.250;8.702;2022-08-03T13:08:40;30.30;86.10
41965;DHT22;50120;53.250;8.702;2022-08-03T13:11:24;30.20;87.70
41965;DHT22;50120;53.250;8.702;2022-08-03T13:13:51;30.30;89.80
41965;DHT22;50120;53.250;8.702;2022-08-03T13:16:18;30.20;88.70
41965;DHT22;50120;53.250;8.702;2022-08-03T13:18:49;30.10;85.70
41965;DHT22;50120;53.250;8.702;2022-08-03T13:21:17;30.10;88.60
41965;DHT22;50120;53.250;8.702;2022-08-03T13:23:44;30.10;86.80
41965;DHT22;50120;53.250;8.702;2022-08-03T13:26:11;30.10;87.80
41965;DHT22;50120;53.250;8.702;2022-08-03T13:28:38;30.40;86.40
41965;DHT22;50120;53.250;8.702;2022-08-03T13:31:05;30.40;86.70
41965;DHT22;50120;53.250;8.702;2022-08-03T13:33:30;30.50;86.60
41965;DHT22;50120;53.250;8.702;2022-08-03T13:35:56;30.70;88.00
41965;DHT22;50120;53.250;8.702;2022-08-03T13:38:22;30.90;83.80
41965;DHT22;50120;53.250;8.702;2022-08-03T13:40:50;30.90;80.40
41965;DHT22;50120;53.250;8.702;2022-08-03T13:43:16;30.90;79.90
41965;DHT22;50120;53.250;8.702;2022-08-03T13:45:42;30.90;79.90
41965;DHT22;50120;53.250;8.702;2022-08-03T13:48:08;30.90;78.40
41965;DHT22;50120;53.250;8.702;2022-08-03T13:50:33;31.00;80.40
41965;DHT22;50120;53.250;8.702;2022-08-03T13:52:59;31.10;80.20
41965;DHT22;50120;53.250;8.702;2022-08-03T13:55:25;31.20;77.80
41965;DHT22;50120;53.250;8.702;2022-08-03T13:57:51;31.20;78.30
41965;DHT22;50120;53.250;8.702;2022-08-03T14:00:17;31.10;80.10
41965;DHT22;50120;53.250;8.702;2022-08-03T14:02:44;31.10;78.20
41965;DHT22;50120;53.250;8.702;2022-08-03T14:05:10;31.10;79.50
41965;DHT22;50120;53.250;8.702;2022-08-03T14:07:35;31.10;80.20
41965;DHT22;50120;53.250;8.702;2022-08-03T14:10:01;31.10;83.30
41965;DHT22;50120;53.250;8.702;2022-08-03T14:12:27;31.20;84.10
41965;DHT22;50120;53.250;8.702;2022-08-03T14:14:53;31.40;82.20
41965;DHT22;50120;53.250;8.702;2022-08-03T14:17:19;31.40;80.20
41965;DHT22;50120;53.250;8.702;2022-08-03T14:19:44;31.40;81.00
41965;DHT22;50120;53.250;8.702;2022-08-03T14:22:10;31.50;80.30
41965;DHT22;50120;53.250;8.702;2022-08-03T14:24:36;31.50;82.80
41965;DHT22;50120;53.250;8.702;2022-08-03T14:27:02;31.50;80.10
41965;DHT22;50120;53.250;8.702;2022-08-03T14:29:27;31.30;81.50
41965;DHT22;50120;53.250;8.702;2022-08-03T14:31:53;31.10;80.30
41965;DHT22;50120;53.250;8.702;2022-08-03T14:34:19;31.10;80.40
41965;DHT22;50120;53.250;8.702;2022-08-03T14:36:45;31.20;82.30
41965;DHT22;50120;53.250;8.702;2022-08-03T14:39:12;31.30;78.50
41965;DHT22;50120;53.250;8.702;2022-08-03T14:41:38;31.40;78.20
41965;DHT22;50120;53.250;8.702;2022-08-03T14:44:04;31.40;79.80
41965;DHT22;50120;53.250;8.702;2022-08-03T14:46:30;31.40;78.60
41965;DHT22;50120;53.250;8.702;2022-08-03T14:48:57;31.40;79.60
41965;DHT22;50120;53.250;8.702;2022-08-03T14:51:23;31.40;77.20
41965;DHT22;50120;53.250;8.702;2022-08-03T14:53:49;31.30;78.30
41965;DHT22;50120;53.250;8.702;2022-08-03T14:56:15;31.30;78.70
41965;DHT22;50120;53.250;8.702;2022-08-03T14:58:41;31.20;77.80
41965;DHT22;50120;53.250;8.702;2022-08-03T15:01:07;31.20;78.00
41965;DHT22;50120;53.250;8.702;2022-08-03T15:03:32;31.10;76.80
41965;DHT22;50120;53.250;8.702;2022-08-03T15:05:58;31.00;75.00
41965;DHT22;50120;53.250;8.702;2022-08-03T15:08:25;30.90;79.80
41965;DHT22;50120;53.250;8.702;2022-08-03T15:10:52;30.80;78.60
41965;DHT22;50120;53.250;8.702;2022-08-03T15:13:18;30.70;74.50
41965;DHT22;50120;53.250;8.702;2022-08-03T15:15:45;30.70;74.00
41965;DHT22;50120;53.250;8.702;2022-08-03T15:18:12;30.70;74.50
41965;DHT22;50120;53.250;8.702;2022-08-03T15:20:37;30.60;75.20
41965;DHT22;50120;53.250;8.702;2022-08-03T15:23:03;30.60;75.20
41965;DHT22;50120;53.250;8.702;2022-08-03T15:25:29;30.50;76.80
41965;DHT22;50120;53.250;8.702;2022-08-03T15:27:54;30.40;76.80
41965;DHT22;50120;53.250;8.702;2022-08-03T15:30:20;30.30;77.00
41965;DHT22;50120;53.250;8.702;2022-08-03T15:32:47;30.20;78.50
41965;DHT22;50120;53.250;8.702;2022-08-03T15:35:13;30.00;72.90
41965;DHT22;50120;53.250;8.702;2022-08-03T15:37:38;29.90;76.40
41965;DHT22;50120;53.250;8.702;2022-08-03T15:40:04;29.80;75.50
41965;DHT22;50120;53.250;8.702;2022-08-03T15:42:37;29.70;75.40
41965;DHT22;50120;53.250;8.702;2022-08-03T15:45:06;29.70;78.60
41965;DHT22;50120;53.250;8.702;2022-08-03T15:47:32;29.60;79.50
41965;DHT22;50120;53.250;8.702;2022-08-03T15:49:57;29.50;81.30
41965;DHT22;50120;53.250;8.702;2022-08-03T15:52:23;29.40;75.00
41965;DHT22;50120;53.250;8.702;2022-08-03T15:54:49;29.40;73.90
41965;DHT22;50120;53.250;8.702;2022-08-03T15:57:15;29.40;77.50
41965;DHT22;50120;53.250;8.702;2022-08-03T15:59:40;29.40;78.90
41965;DHT22;50120;53.250;8.702;2022-08-03T16:02:06;29.30;76.60
41965;DHT22;50120;53.250;8.702;2022-08-03T16:04:32;29.30;77.90
41965;DHT22;50120;53.250;8.702;2022-08-03T16:06:58;29.30;81.90
41965;DHT22;50120;53.250;8.702;2022-08-03T16:09:23;29.30;81.90
41965;DHT22;50120;53.250;8.702;2022-08-03T16:11:49;29.40;81.00
41965;DHT22;50120;53.250;8.702;2022-08-03T16:14:15;29.30;78.30